createdAt,value
2018-10-06T00:01:12.747Z,80.76
2018-10-06T00:03:41.395Z,80.86
2018-10-06T00:06:10.057Z,80.91
2018-10-06T00:08:38.676Z,81.24
2018-10-06T00:11:07.303Z,81.17
2018-10-06T00:13:35.956Z,81.23
2018-10-06T00:16:04.594Z,81.35
2018-10-06T00:18:33.250Z,81.54
2018-10-06T00:21:01.863Z,81.38
2018-10-06T00:23:30.767Z,81.70
2018-10-06T00:25:59.406Z,81.93
2018-10-06T00:28:28.230Z,82.21
2018-10-06T00:30:56.880Z,82.44
2018-10-06T00:33:25.526Z,82.54
2018-10-06T00:35:54.143Z,82.47
2018-10-06T00:38:22.829Z,82.38
2018-10-06T00:40:51.456Z,82.03
2018-10-06T00:43:20.308Z,81.96
2018-10-06T00:45:48.954Z,82.05
2018-10-06T00:48:17.671Z,82.02
2018-10-06T00:50:46.284Z,81.63
2018-10-06T00:53:14.946Z,81.70
2018-10-06T00:55:43.578Z,81.44
2018-10-06T00:58:12.192Z,81.94
2018-10-06T01:00:40.951Z,81.62
2018-10-06T01:03:09.563Z,81.89
2018-10-06T01:05:38.240Z,80.96
2018-10-06T01:08:06.861Z,80.93
2018-10-06T01:10:35.546Z,80.86
2018-10-06T01:13:04.148Z,80.82
2018-10-06T01:15:32.811Z,80.31
2018-10-06T01:18:01.483Z,80.24
2018-10-06T01:20:30.132Z,80.51
2018-10-06T01:22:58.775Z,80.58
2018-10-06T01:25:27.448Z,80.61
2018-10-06T01:27:56.077Z,81.44
2018-10-06T01:30:24.744Z,81.06
2018-10-06T01:32:53.430Z,81.06
2018-10-06T01:35:22.089Z,80.73
2018-10-06T01:37:50.745Z,81.11
2018-10-06T01:40:19.440Z,80.39
2018-10-06T01:42:48.128Z,80.74
2018-10-06T01:45:16.995Z,80.73
2018-10-06T01:47:45.619Z,80.41
2018-10-06T01:50:14.392Z,80.16
2018-10-06T01:52:43.054Z,80.22
2018-10-06T01:55:11.737Z,80.02
2018-10-06T01:57:40.414Z,80.35
2018-10-06T02:00:09.089Z,80.34
2018-10-06T02:02:37.766Z,80.67
2018-10-06T02:05:06.423Z,80.65
2018-10-06T02:07:35.080Z,79.98
2018-10-06T02:10:03.850Z,80.56
2018-10-06T02:12:32.593Z,81.22
2018-10-06T02:15:01.227Z,80.86
2018-10-06T02:17:29.861Z,81.36
2018-10-06T02:19:58.532Z,81.58
2018-10-06T02:22:27.195Z,80.87
2018-10-06T02:24:56.702Z,81.16
2018-10-06T02:27:25.321Z,81.23
2018-10-06T02:29:53.971Z,81.45
2018-10-06T02:32:22.656Z,81.19
2018-10-06T02:34:51.349Z,81.57
2018-10-06T02:37:20.000Z,81.50
2018-10-06T02:39:48.649Z,81.76
2018-10-06T02:42:17.284Z,81.58
2018-10-06T02:44:45.952Z,81.98
2018-10-06T02:47:14.636Z,81.57
2018-10-06T02:49:43.277Z,82.09
2018-10-06T02:52:11.938Z,81.80
2018-10-06T02:54:40.598Z,81.96
2018-10-06T02:57:09.310Z,82.18
2018-10-06T02:59:38.071Z,82.31
2018-10-06T03:02:07.134Z,82.50
2018-10-06T03:04:35.774Z,82.54
2018-10-06T03:07:04.545Z,82.36
2018-10-06T03:09:33.421Z,82.95
2018-10-06T03:12:02.169Z,83.11
2018-10-06T03:14:30.796Z,83.42
2018-10-06T03:16:59.467Z,83.24
2018-10-06T03:19:28.176Z,83.46
2018-10-06T03:21:56.819Z,83.76
2018-10-06T03:24:25.487Z,83.95
2018-10-06T03:26:54.482Z,83.95
2018-10-06T03:29:23.160Z,84.04
2018-10-06T03:31:51.799Z,84.24
2018-10-06T03:34:20.441Z,83.98
2018-10-06T03:36:49.113Z,84.15
2018-10-06T03:39:17.815Z,84.48
2018-10-06T03:41:46.595Z,84.83
2018-10-06T03:44:15.234Z,84.99
2018-10-06T03:46:43.932Z,84.39
2018-10-06T03:49:12.564Z,84.96
2018-10-06T03:51:41.222Z,85.27
2018-10-06T03:54:11.614Z,84.82
2018-10-06T03:56:41.935Z,84.86
2018-10-06T03:59:10.624Z,85.77
2018-10-06T04:01:39.302Z,85.59
2018-10-06T04:04:07.962Z,86.08
2018-10-06T04:06:36.611Z,86.29
2018-10-06T04:09:07.631Z,85.88
2018-10-06T04:11:36.756Z,85.61
2018-10-06T04:14:05.700Z,85.69
2018-10-06T04:16:34.389Z,85.30
2018-10-06T04:19:03.203Z,86.48
2018-10-06T04:21:37.128Z,86.75
2018-10-06T04:24:05.950Z,86.21
2018-10-06T04:26:34.640Z,86.53
2018-10-06T04:29:03.304Z,86.30
2018-10-06T04:31:31.953Z,86.37
2018-10-06T04:34:00.599Z,86.71
2018-10-06T04:36:29.247Z,86.24
2018-10-06T04:38:58.019Z,86.60
2018-10-06T04:41:26.980Z,87.08
2018-10-06T04:43:55.621Z,86.85
2018-10-06T04:46:24.270Z,87.39
2018-10-06T04:48:52.891Z,87.81
2018-10-06T04:51:21.553Z,87.93
2018-10-06T04:53:50.204Z,87.72
2018-10-06T04:56:18.864Z,88.14
2018-10-06T04:58:47.525Z,88.17
2018-10-06T05:01:16.227Z,88.19
2018-10-06T05:03:44.868Z,88.64
2018-10-06T05:06:13.559Z,88.72
2018-10-06T05:08:45.201Z,88.81
2018-10-06T05:11:13.841Z,88.68
2018-10-06T05:13:42.487Z,88.32
2018-10-06T05:16:11.125Z,88.31
2018-10-06T05:18:39.755Z,88.29
2018-10-06T05:21:08.408Z,88.25
2018-10-06T05:23:37.071Z,87.79
2018-10-06T05:26:05.661Z,87.66
2018-10-06T05:28:34.353Z,87.46
2018-10-06T05:31:02.948Z,87.68
2018-10-06T05:33:31.611Z,88.02
2018-10-06T05:36:00.264Z,88.26
2018-10-06T05:38:28.936Z,88.23
2018-10-06T05:40:57.597Z,88.26
2018-10-06T05:43:26.233Z,88.01
2018-10-06T05:45:54.914Z,88.03
2018-10-06T05:48:23.607Z,87.46
2018-10-06T05:50:52.237Z,87.00
2018-10-06T05:53:20.841Z,86.86
2018-10-06T05:55:49.457Z,86.70
2018-10-06T05:58:18.136Z,86.26
2018-10-06T06:00:46.797Z,85.76
2018-10-06T06:03:15.468Z,85.80
2018-10-06T06:05:44.139Z,85.22
2018-10-06T06:08:12.797Z,85.69
2018-10-06T06:10:41.449Z,85.82
2018-10-06T06:13:10.075Z,85.63
2018-10-06T06:15:38.773Z,86.22
2018-10-06T06:18:07.484Z,86.70
2018-10-06T06:20:36.113Z,86.49
2018-10-06T06:23:04.792Z,87.11
2018-10-06T06:25:33.444Z,89.07
2018-10-06T06:28:02.124Z,86.17
2018-10-06T06:30:30.769Z,86.35
2018-10-06T06:32:59.464Z,85.43
2018-10-06T06:35:28.194Z,86.07
2018-10-06T06:37:56.828Z,86.20
2018-10-06T06:40:27.520Z,85.80
2018-10-06T06:42:56.249Z,85.98
2018-10-06T06:45:24.935Z,85.76
2018-10-06T06:47:53.556Z,85.64
2018-10-06T06:50:23.146Z,85.08
2018-10-06T06:52:51.765Z,83.86
2018-10-06T06:55:21.000Z,81.54
2018-10-06T06:57:50.046Z,80.89
2018-10-06T07:00:18.709Z,79.94
2018-10-06T07:02:47.345Z,78.65
2018-10-06T07:05:20.252Z,76.96
2018-10-06T07:07:48.932Z,76.31
2018-10-06T07:10:17.777Z,75.05
2018-10-06T07:12:46.581Z,74.52
2018-10-06T07:15:15.261Z,73.59
2018-10-06T07:17:43.965Z,73.12
2018-10-06T07:20:13.265Z,73.20
2018-10-06T07:22:42.189Z,73.42
2018-10-06T07:25:12.659Z,73.62
2018-10-06T07:27:41.512Z,74.90
2018-10-06T07:30:10.958Z,74.80
2018-10-06T07:32:39.643Z,75.38
2018-10-06T07:35:08.955Z,73.65
2018-10-06T07:37:37.697Z,73.37
2018-10-06T07:40:07.159Z,73.95
2018-10-06T07:42:35.955Z,72.07
2018-10-06T07:45:04.757Z,73.12
2018-10-06T07:47:33.468Z,72.73
2018-10-06T07:50:02.316Z,71.85
2018-10-06T07:52:30.987Z,71.96
2018-10-06T07:54:59.696Z,72.14
2018-10-06T07:57:28.398Z,72.06
2018-10-06T07:59:57.089Z,71.65
2018-10-06T08:02:25.703Z,70.47
2018-10-06T08:04:54.355Z,70.85
2018-10-06T08:07:23.072Z,70.19
2018-10-06T08:09:51.736Z,70.68
2018-10-06T08:12:20.358Z,70.66
2018-10-06T08:14:49.301Z,69.59
2018-10-06T08:17:18.072Z,69.00
2018-10-06T08:19:46.727Z,67.48
2018-10-06T08:22:15.424Z,68.76
2018-10-06T08:24:44.311Z,68.41
2018-10-06T08:27:13.014Z,66.70
2018-10-06T08:29:41.688Z,66.39
2018-10-06T08:32:10.369Z,67.75
2018-10-06T08:34:39.036Z,68.41
2018-10-06T08:37:07.663Z,67.72
2018-10-06T08:39:36.308Z,65.53
2018-10-06T08:42:05.848Z,62.91
2018-10-06T08:44:34.621Z,61.40
2018-10-06T08:47:03.231Z,58.60
2018-10-06T08:49:31.873Z,56.55
2018-10-06T08:52:00.508Z,55.60
2018-10-06T08:54:29.184Z,54.09
2018-10-06T08:56:57.909Z,54.51
2018-10-06T08:59:26.557Z,53.66
2018-10-06T09:01:55.350Z,52.66
2018-10-06T09:04:24.255Z,52.26
2018-10-06T09:06:52.776Z,52.08
2018-10-06T09:09:21.445Z,51.31
2018-10-06T09:11:50.150Z,49.29
2018-10-06T09:14:18.815Z,49.56
2018-10-06T09:16:47.439Z,49.53
2018-10-06T09:19:16.085Z,49.04
2018-10-06T09:21:44.736Z,49.52
2018-10-06T09:24:13.388Z,48.89
2018-10-06T09:26:42.040Z,48.50
2018-10-06T09:29:10.691Z,47.42
2018-10-06T09:31:39.384Z,47.13
2018-10-06T09:34:08.048Z,46.97
2018-10-06T09:36:36.715Z,45.21
2018-10-06T09:39:06.977Z,44.30
2018-10-06T09:41:35.663Z,43.65
2018-10-06T09:44:04.445Z,43.32
2018-10-06T09:46:33.058Z,42.86
2018-10-06T09:49:01.690Z,43.50
2018-10-06T09:51:30.331Z,42.15
2018-10-06T09:53:59.040Z,41.18
2018-10-06T09:56:27.680Z,42.44
2018-10-06T09:58:56.385Z,43.43
2018-10-06T10:01:30.535Z,44.01
2018-10-06T10:04:04.597Z,43.04
2018-10-06T10:06:33.248Z,41.03
2018-10-06T10:09:01.982Z,40.98
2018-10-06T10:11:30.588Z,40.28
2018-10-06T10:13:59.199Z,41.34
2018-10-06T10:16:27.841Z,41.55
2018-10-06T10:18:56.502Z,41.60
2018-10-06T10:21:25.139Z,42.20
2018-10-06T10:23:53.837Z,40.76
2018-10-06T10:26:22.409Z,40.33
2018-10-06T10:28:51.070Z,40.39
2018-10-06T10:31:19.705Z,40.05
2018-10-06T10:33:50.731Z,40.31
2018-10-06T10:36:19.389Z,40.28
2018-10-06T10:38:48.115Z,37.70
2018-10-06T10:41:16.875Z,38.43
2018-10-06T10:43:45.561Z,37.76
2018-10-06T10:46:14.172Z,37.69
2018-10-06T10:48:42.812Z,38.49
2018-10-06T10:51:11.452Z,39.03
2018-10-06T10:53:40.093Z,38.90
2018-10-06T10:56:08.763Z,39.44
2018-10-06T10:58:37.589Z,39.64
2018-10-06T11:01:06.266Z,38.69
2018-10-06T11:03:34.908Z,38.19
2018-10-06T11:06:03.593Z,39.46
2018-10-06T11:08:32.232Z,39.17
2018-10-06T11:11:00.898Z,39.40
2018-10-06T11:13:29.622Z,39.85
2018-10-06T11:15:58.323Z,40.12
2018-10-06T11:18:26.956Z,40.95
2018-10-06T11:20:55.655Z,39.82
2018-10-06T11:23:24.335Z,38.76
2018-10-06T11:25:53.035Z,38.45
2018-10-06T11:28:21.766Z,38.08
2018-10-06T11:30:50.414Z,37.83
2018-10-06T11:33:19.044Z,39.08
2018-10-06T11:35:47.692Z,39.70
2018-10-06T11:38:16.409Z,39.10
2018-10-06T11:40:44.971Z,40.44
2018-10-06T11:43:13.682Z,37.81
2018-10-06T11:45:42.331Z,37.33
2018-10-06T11:48:11.093Z,38.01
2018-10-06T11:50:39.741Z,39.40
2018-10-06T11:53:08.372Z,38.46
2018-10-06T11:55:37.027Z,37.74
2018-10-06T11:58:05.866Z,38.29
2018-10-06T12:00:34.516Z,39.06
2018-10-06T12:03:03.140Z,41.91
2018-10-06T12:05:31.751Z,40.67
2018-10-06T12:08:00.399Z,40.43
2018-10-06T12:10:29.064Z,39.70
2018-10-06T12:12:57.753Z,39.70
2018-10-06T12:15:26.390Z,39.73
2018-10-06T12:17:55.175Z,39.16
2018-10-06T12:20:23.855Z,39.90
2018-10-06T12:22:52.476Z,39.26
2018-10-06T12:25:21.134Z,39.38
2018-10-06T12:27:49.805Z,38.86
2018-10-06T12:30:18.452Z,38.84
2018-10-06T12:32:47.113Z,40.09
2018-10-06T12:35:15.856Z,39.32
2018-10-06T12:37:44.428Z,39.90
2018-10-06T12:40:13.076Z,40.35
2018-10-06T12:42:41.754Z,38.82
2018-10-06T12:45:10.440Z,40.15
2018-10-06T12:47:39.070Z,39.21
2018-10-06T12:50:07.724Z,38.72
2018-10-06T12:52:36.359Z,39.22
2018-10-06T12:55:05.234Z,39.44
2018-10-06T12:57:33.996Z,38.60
2018-10-06T13:00:02.822Z,39.34
2018-10-06T13:02:31.420Z,39.44
2018-10-06T13:05:00.113Z,44.09
2018-10-06T13:07:28.819Z,47.15
2018-10-06T13:09:57.441Z,45.56
2018-10-06T13:12:26.127Z,45.27
2018-10-06T13:14:54.748Z,47.08
2018-10-06T13:17:23.428Z,48.20
2018-10-06T13:19:52.062Z,49.79
2018-10-06T13:22:20.745Z,51.74
2018-10-06T13:24:49.372Z,51.39
2018-10-06T13:27:18.039Z,50.88
2018-10-06T13:29:46.651Z,51.06
2018-10-06T13:32:15.336Z,49.36
2018-10-06T13:34:44.032Z,49.23
2018-10-06T13:37:12.700Z,50.02
2018-10-06T13:39:41.384Z,51.16
2018-10-06T13:42:10.052Z,51.60
2018-10-06T13:44:38.815Z,52.79
2018-10-06T13:47:07.636Z,52.73
2018-10-06T13:49:36.262Z,53.96
2018-10-06T13:52:04.912Z,55.60
2018-10-06T13:54:33.560Z,56.18
2018-10-06T13:57:02.315Z,55.49
2018-10-06T13:59:30.843Z,55.67
2018-10-06T14:01:59.500Z,55.65
2018-10-06T14:04:28.171Z,57.14
2018-10-06T14:06:56.900Z,57.95
2018-10-06T14:09:25.540Z,58.31
2018-10-06T14:11:54.208Z,59.00
2018-10-06T14:14:22.860Z,60.04
2018-10-06T14:16:51.544Z,60.25
2018-10-06T14:19:20.188Z,60.78
2018-10-06T14:21:48.849Z,61.36
2018-10-06T14:24:17.508Z,60.66
2018-10-06T14:26:46.473Z,61.70
2018-10-06T14:29:15.114Z,62.28
2018-10-06T14:31:43.731Z,61.87
2018-10-06T14:34:12.388Z,61.36
2018-10-06T14:36:41.098Z,61.49
2018-10-06T14:39:10.576Z,62.07
2018-10-06T14:41:39.247Z,62.00
2018-10-06T14:44:07.973Z,62.71
2018-10-06T14:46:36.597Z,62.68
2018-10-06T14:49:05.248Z,63.43
2018-10-06T14:51:33.917Z,63.77
2018-10-06T14:54:02.551Z,64.02
2018-10-06T14:56:31.184Z,64.42
2018-10-06T14:58:59.876Z,65.22
2018-10-06T15:01:28.527Z,65.06
2018-10-06T15:03:57.325Z,64.89
2018-10-06T15:06:25.990Z,65.64
2018-10-06T15:08:54.652Z,65.58
2018-10-06T15:11:23.281Z,65.49
2018-10-06T15:13:51.919Z,65.86
2018-10-06T15:16:20.541Z,65.95
2018-10-06T15:18:49.160Z,66.48
2018-10-06T15:21:17.847Z,66.79
2018-10-06T15:23:46.495Z,66.41
2018-10-06T15:26:15.184Z,67.05
2018-10-06T15:28:43.835Z,67.48
2018-10-06T15:31:12.456Z,67.31
2018-10-06T15:33:41.101Z,67.48
2018-10-06T15:36:09.754Z,68.13
2018-10-06T15:38:38.481Z,68.38
2018-10-06T15:41:07.112Z,68.53
2018-10-06T15:43:35.768Z,68.95
2018-10-06T15:46:04.408Z,69.34
2018-10-06T15:48:39.762Z,69.28
2018-10-06T15:51:08.456Z,69.25
2018-10-06T15:53:37.099Z,69.38
2018-10-06T15:56:05.843Z,69.36
2018-10-06T15:58:34.475Z,68.92
2018-10-06T16:01:03.125Z,69.05
2018-10-06T16:03:31.793Z,69.21
2018-10-06T16:06:00.432Z,68.96
2018-10-06T16:08:29.079Z,68.99
2018-10-06T16:10:57.715Z,68.76
2018-10-06T16:13:26.348Z,68.87
2018-10-06T16:15:55.129Z,68.62
2018-10-06T16:18:23.827Z,68.21
2018-10-06T16:20:52.488Z,68.92
2018-10-06T16:23:21.129Z,68.74
2018-10-06T16:25:49.815Z,69.44
2018-10-06T16:28:18.497Z,69.41
2018-10-06T16:30:47.170Z,69.22
2018-10-06T16:33:15.931Z,68.84
2018-10-06T16:35:44.556Z,69.79
2018-10-06T16:38:13.314Z,69.58
2018-10-06T16:40:42.110Z,70.01
2018-10-06T16:43:10.833Z,70.00
2018-10-06T16:45:39.552Z,70.08
2018-10-06T16:48:08.235Z,70.24
2018-10-06T16:50:36.907Z,70.24
2018-10-06T16:53:05.627Z,70.88
2018-10-06T16:55:34.277Z,71.43
2018-10-06T16:58:02.987Z,71.63
2018-10-06T17:00:31.809Z,72.03
2018-10-06T17:03:00.454Z,72.36
2018-10-06T17:05:29.158Z,72.27
2018-10-06T17:07:57.811Z,73.03
2018-10-06T17:10:26.507Z,73.38
2018-10-06T17:12:55.200Z,73.14
2018-10-06T17:15:23.944Z,74.05
2018-10-06T17:17:52.567Z,74.43
2018-10-06T17:20:21.318Z,75.18
2018-10-06T17:22:49.952Z,75.64
2018-10-06T17:25:18.635Z,75.27
2018-10-06T17:27:47.220Z,75.23
2018-10-06T17:30:15.840Z,74.39
2018-10-06T17:32:44.479Z,75.09
2018-10-06T17:35:13.529Z,76.07
2018-10-06T17:37:42.222Z,76.08
2018-10-06T17:40:10.878Z,76.53
2018-10-06T17:42:40.011Z,76.68
2018-10-06T17:45:08.792Z,76.88
2018-10-06T17:47:37.452Z,76.85
2018-10-06T17:50:06.412Z,77.45
2018-10-06T17:52:34.866Z,77.55
2018-10-06T17:55:03.598Z,77.74
2018-10-06T17:57:32.289Z,77.92
2018-10-06T18:00:00.900Z,78.14
2018-10-06T18:02:29.725Z,78.70
2018-10-06T18:04:58.549Z,78.77
2018-10-06T18:07:27.158Z,78.60
2018-10-06T18:09:55.837Z,78.24
2018-10-06T18:12:24.629Z,77.97
2018-10-06T18:14:53.268Z,77.74
2018-10-06T18:17:23.123Z,78.12
2018-10-06T18:19:51.804Z,77.57
2018-10-06T18:22:20.468Z,77.79
2018-10-06T18:24:49.112Z,77.86
2018-10-06T18:27:17.796Z,77.98
2018-10-06T18:29:46.385Z,77.30
2018-10-06T18:32:15.604Z,77.14
2018-10-06T18:34:45.677Z,76.81
2018-10-06T18:37:14.491Z,77.39
2018-10-06T18:39:43.099Z,77.70
2018-10-06T18:42:11.748Z,77.08
2018-10-06T18:44:40.396Z,77.42
2018-10-06T18:47:09.102Z,77.22
2018-10-06T18:49:38.044Z,77.41
2018-10-06T18:52:07.074Z,78.22
2018-10-06T18:54:35.677Z,78.13
2018-10-06T18:57:04.423Z,78.64
2018-10-06T18:59:33.015Z,79.00
2018-10-06T19:02:01.658Z,78.42
2018-10-06T19:04:30.312Z,78.29
2018-10-06T19:06:59.092Z,77.87
2018-10-06T19:09:27.686Z,78.04
2018-10-06T19:11:56.322Z,77.74
2018-10-06T19:14:25.012Z,78.11
2018-10-06T19:16:53.664Z,78.22
2018-10-06T19:19:22.344Z,78.07
2018-10-06T19:21:51.045Z,78.76
2018-10-06T19:24:19.708Z,78.32
2018-10-06T19:26:48.478Z,78.29
2018-10-06T19:29:17.184Z,78.02
2018-10-06T19:31:46.287Z,78.83
2018-10-06T19:34:14.939Z,79.05
2018-10-06T19:36:43.576Z,78.77
2018-10-06T19:39:12.215Z,78.85
2018-10-06T19:41:40.833Z,78.72
2018-10-06T19:44:09.564Z,78.35
2018-10-06T19:46:38.203Z,78.47
2018-10-06T19:49:06.841Z,78.05
2018-10-06T19:51:35.502Z,79.26
2018-10-06T19:54:04.107Z,78.79
2018-10-06T19:56:33.437Z,79.08
2018-10-06T19:59:02.104Z,79.48
2018-10-06T20:01:30.731Z,79.83
2018-10-06T20:03:59.504Z,80.46
2018-10-06T20:06:28.069Z,80.31
2018-10-06T20:08:56.756Z,80.38
2018-10-06T20:11:25.490Z,80.34
2018-10-06T20:13:54.188Z,80.64
2018-10-06T20:16:22.876Z,80.38
2018-10-06T20:18:51.713Z,80.64
2018-10-06T20:21:20.361Z,80.70
2018-10-06T20:23:49.039Z,80.44
2018-10-06T20:26:17.722Z,80.39
2018-10-06T20:28:46.422Z,79.99
2018-10-06T20:31:15.059Z,78.52
2018-10-06T20:33:43.741Z,79.54
2018-10-06T20:36:12.402Z,79.35
2018-10-06T20:38:41.116Z,80.24
2018-10-06T20:41:09.857Z,80.29
2018-10-06T20:43:38.884Z,79.72
2018-10-06T20:46:07.948Z,79.67
2018-10-06T20:48:36.684Z,79.41
2018-10-06T20:51:06.377Z,81.32
2018-10-06T20:53:35.909Z,82.31
2018-10-06T20:56:05.428Z,82.86
2018-10-06T20:58:34.187Z,83.88
2018-10-06T21:01:03.169Z,84.14
2018-10-06T21:03:31.870Z,83.73
2018-10-06T21:06:01.180Z,83.30
2018-10-06T21:08:29.957Z,83.35
2018-10-06T21:10:58.711Z,82.30
2018-10-06T21:13:27.492Z,82.21
2018-10-06T21:15:56.147Z,81.56
2018-10-06T21:18:25.156Z,81.62
2018-10-06T21:20:54.283Z,81.93
2018-10-06T21:23:22.989Z,81.80
2018-10-06T21:25:51.727Z,81.98
2018-10-06T21:28:20.659Z,82.55
2018-10-06T21:30:49.354Z,83.05
2018-10-06T21:33:18.159Z,83.50
2018-10-06T21:35:46.885Z,84.42
2018-10-06T21:38:15.552Z,84.19
2018-10-06T21:40:44.396Z,84.92
2018-10-06T21:43:13.507Z,84.58
2018-10-06T21:45:42.150Z,83.94
2018-10-06T21:48:10.779Z,83.74
2018-10-06T21:50:39.566Z,83.73
2018-10-06T21:53:08.224Z,84.14
2018-10-06T21:55:37.047Z,84.37
2018-10-06T21:58:06.132Z,84.79
2018-10-06T22:00:35.029Z,85.63
2018-10-06T22:03:03.763Z,85.65
2018-10-06T22:05:32.843Z,84.91
2018-10-06T22:08:01.528Z,84.22
2018-10-06T22:10:30.216Z,83.89
2018-10-06T22:12:58.945Z,84.18
2018-10-06T22:15:27.629Z,84.15
2018-10-06T22:17:56.275Z,83.59
2018-10-06T22:20:24.948Z,83.46
2018-10-06T22:22:53.618Z,83.54
2018-10-06T22:25:22.283Z,83.79
2018-10-06T22:27:50.979Z,83.59
2018-10-06T22:30:19.892Z,83.46
2018-10-06T22:32:48.623Z,84.31
2018-10-06T22:35:17.408Z,84.60
2018-10-06T22:37:46.052Z,84.55
2018-10-06T22:40:14.695Z,83.94
2018-10-06T22:42:43.320Z,84.20
2018-10-06T22:45:11.970Z,84.16
2018-10-06T22:47:40.595Z,84.30
2018-10-06T22:50:09.839Z,84.89
2018-10-06T22:52:38.459Z,84.72
2018-10-06T22:55:07.372Z,84.25
2018-10-06T22:57:36.284Z,84.30
2018-10-06T23:00:05.103Z,84.49
2018-10-06T23:02:33.735Z,84.73
2018-10-06T23:05:02.512Z,85.05
2018-10-06T23:07:31.148Z,84.66
2018-10-06T23:09:59.777Z,84.92
2018-10-06T23:12:28.435Z,84.73
2018-10-06T23:14:57.047Z,85.29
2018-10-06T23:17:25.736Z,86.01
2018-10-06T23:19:54.392Z,85.84
2018-10-06T23:22:23.125Z,85.95
2018-10-06T23:24:51.809Z,86.11
2018-10-06T23:27:20.466Z,86.23
2018-10-06T23:29:49.197Z,86.17
2018-10-06T23:32:17.832Z,86.28
2018-10-06T23:34:46.534Z,86.80
2018-10-06T23:37:15.221Z,86.98
2018-10-06T23:39:43.856Z,87.37
2018-10-06T23:42:12.679Z,87.43
2018-10-06T23:44:41.325Z,87.14
2018-10-06T23:47:09.949Z,86.94
2018-10-06T23:49:38.583Z,86.98
2018-10-06T23:52:07.434Z,87.33
2018-10-06T23:54:36.060Z,88.03
2018-10-06T23:57:04.755Z,87.17
2018-10-06T23:59:33.417Z,86.76
